createdAt,value
2018-10-09T00:00:17.603Z,7.40
2018-10-09T00:02:19.667Z,7.40
2018-10-09T00:04:21.725Z,7.40
2018-10-09T00:06:23.804Z,7.40
2018-10-09T00:08:25.886Z,7.40
2018-10-09T00:10:27.938Z,7.30
2018-10-09T00:12:30.004Z,7.20
2018-10-09T00:14:32.118Z,7.20
2018-10-09T00:16:34.569Z,7.20
2018-10-09T00:18:36.656Z,7.10
2018-10-09T00:20:38.773Z,7.20
2018-10-09T00:22:40.901Z,7.20
2018-10-09T00:24:45.034Z,7.20
2018-10-09T00:26:47.413Z,7.20
2018-10-09T00:28:49.465Z,7.20
2018-10-09T00:30:51.514Z,7.20
2018-10-09T00:32:53.812Z,7.20
2018-10-09T00:34:55.877Z,7.20
2018-10-09T00:36:57.954Z,7.30
2018-10-09T00:39:00.019Z,7.30
2018-10-09T00:41:02.089Z,7.20
2018-10-09T00:43:04.173Z,7.20
2018-10-09T00:45:06.219Z,7.20
2018-10-09T00:47:08.288Z,7.20
2018-10-09T00:49:10.381Z,7.20
2018-10-09T00:51:12.457Z,7.20
2018-10-09T00:53:14.521Z,7.20
2018-10-09T00:55:16.584Z,7.20
2018-10-09T00:57:18.689Z,7.10
2018-10-09T00:59:21.041Z,7.10
2018-10-09T01:01:23.179Z,7.10
2018-10-09T01:03:25.266Z,7.00
2018-10-09T01:05:27.345Z,7.00
2018-10-09T01:07:29.417Z,7.00
2018-10-09T01:09:31.481Z,7.00
2018-10-09T01:11:33.562Z,7.00
2018-10-09T01:13:35.641Z,7.00
2018-10-09T01:15:37.784Z,7.00
2018-10-09T01:17:39.848Z,7.00
2018-10-09T01:19:41.922Z,7.00
2018-10-09T01:21:44.017Z,7.00
2018-10-09T01:23:46.089Z,6.90
2018-10-09T01:25:48.169Z,6.90
2018-10-09T01:27:50.365Z,6.90
2018-10-09T01:29:52.509Z,6.90
2018-10-09T01:31:54.589Z,6.90
2018-10-09T01:33:56.798Z,6.90
2018-10-09T01:35:58.849Z,6.90
2018-10-09T01:38:00.952Z,6.90
2018-10-09T01:40:03.096Z,6.90
2018-10-09T01:42:05.157Z,6.90
2018-10-09T01:44:07.228Z,6.90
2018-10-09T01:46:09.300Z,6.80
2018-10-09T01:48:11.369Z,6.70
2018-10-09T01:50:13.435Z,6.70
2018-10-09T01:52:15.503Z,6.70
2018-10-09T01:54:17.592Z,6.70
2018-10-09T01:56:19.672Z,6.70
2018-10-09T01:58:21.762Z,6.60
2018-10-09T02:00:23.858Z,6.60
2018-10-09T02:02:25.948Z,6.60
2018-10-09T02:04:28.049Z,6.50
2018-10-09T02:06:30.131Z,6.50
2018-10-09T02:08:32.190Z,6.50
2018-10-09T02:10:34.286Z,6.50
2018-10-09T02:12:36.362Z,6.60
2018-10-09T02:14:38.461Z,6.50
2018-10-09T02:16:40.589Z,6.50
2018-10-09T02:18:42.664Z,6.50
2018-10-09T02:20:44.893Z,6.50
2018-10-09T02:22:46.989Z,6.50
2018-10-09T02:24:49.089Z,6.60
2018-10-09T02:26:51.269Z,6.50
2018-10-09T02:28:53.380Z,6.50
2018-10-09T02:30:55.473Z,6.50
2018-10-09T02:32:57.545Z,6.50
2018-10-09T02:34:59.681Z,6.50
2018-10-09T02:37:01.899Z,6.50
2018-10-09T02:39:06.882Z,6.50
2018-10-09T02:41:08.969Z,6.50
2018-10-09T02:43:11.069Z,6.50
2018-10-09T02:45:13.150Z,6.40
2018-10-09T02:47:15.277Z,6.40
2018-10-09T02:49:17.377Z,6.40
2018-10-09T02:51:19.469Z,6.40
2018-10-09T02:53:21.551Z,6.40
2018-10-09T02:55:23.681Z,6.40
2018-10-09T02:57:25.770Z,6.30
2018-10-09T02:59:27.841Z,6.20
2018-10-09T03:01:29.945Z,6.20
2018-10-09T03:03:32.030Z,6.20
2018-10-09T03:05:34.122Z,6.20
2018-10-09T03:07:36.225Z,6.10
2018-10-09T03:09:38.320Z,6.10
2018-10-09T03:11:40.420Z,6.20
2018-10-09T03:13:42.548Z,6.10
2018-10-09T03:15:44.649Z,6.20
2018-10-09T03:17:46.741Z,6.20
2018-10-09T03:19:48.813Z,6.20
2018-10-09T03:21:50.925Z,6.20
2018-10-09T03:23:53.024Z,6.20
2018-10-09T03:25:55.108Z,6.20
2018-10-09T03:27:57.221Z,6.20
2018-10-09T03:29:59.311Z,6.10
2018-10-09T03:32:01.393Z,6.20
2018-10-09T03:34:03.496Z,6.20
2018-10-09T03:36:05.553Z,6.20
2018-10-09T03:38:07.634Z,6.10
2018-10-09T03:40:09.724Z,6.10
2018-10-09T03:42:11.857Z,6.10
2018-10-09T03:44:13.940Z,6.10
2018-10-09T03:46:16.021Z,6.10
2018-10-09T03:48:18.076Z,6.00
2018-10-09T03:50:20.149Z,6.00
2018-10-09T03:52:22.261Z,6.10
2018-10-09T03:54:24.324Z,6.10
2018-10-09T03:56:26.537Z,6.10
2018-10-09T03:58:28.617Z,6.10
2018-10-09T04:00:30.696Z,6.10
2018-10-09T04:02:32.768Z,6.10
2018-10-09T04:04:34.824Z,6.10
2018-10-09T04:06:36.921Z,6.10
2018-10-09T04:08:39.002Z,6.00
2018-10-09T04:10:41.100Z,6.00
2018-10-09T04:12:43.231Z,6.00
2018-10-09T04:14:45.312Z,5.90
2018-10-09T04:16:47.385Z,5.90
2018-10-09T04:18:49.457Z,5.90
2018-10-09T04:20:51.516Z,6.00
2018-10-09T04:22:53.580Z,6.00
2018-10-09T04:24:55.625Z,6.00
2018-10-09T04:26:57.712Z,5.90
2018-10-09T04:28:59.796Z,5.90
2018-10-09T04:31:01.873Z,5.90
2018-10-09T04:33:03.960Z,5.90
2018-10-09T04:35:06.043Z,5.80
2018-10-09T04:37:08.409Z,5.80
2018-10-09T04:39:10.526Z,5.80
2018-10-09T04:41:12.588Z,5.80
2018-10-09T04:43:14.668Z,5.90
2018-10-09T04:45:16.749Z,5.90
2018-10-09T04:47:18.829Z,6.00
2018-10-09T04:49:20.888Z,5.90
2018-10-09T04:51:22.957Z,5.90
2018-10-09T04:53:25.045Z,6.00
2018-10-09T04:55:27.117Z,5.90
2018-10-09T04:57:29.180Z,5.90
2018-10-09T04:59:31.392Z,5.90
2018-10-09T05:01:33.465Z,5.90
2018-10-09T05:03:35.542Z,5.80
2018-10-09T05:05:37.649Z,5.90
2018-10-09T05:07:39.733Z,5.80
2018-10-09T05:09:41.788Z,5.80
2018-10-09T05:11:43.857Z,5.70
2018-10-09T05:13:45.928Z,5.70
2018-10-09T05:15:47.996Z,5.70
2018-10-09T05:17:50.081Z,5.70
2018-10-09T05:19:52.780Z,5.70
2018-10-09T05:21:54.979Z,5.70
2018-10-09T05:23:57.282Z,5.70
2018-10-09T05:25:59.481Z,5.80
2018-10-09T05:28:01.681Z,5.80
2018-10-09T05:30:03.865Z,5.70
2018-10-09T05:32:06.103Z,5.60
2018-10-09T05:34:08.177Z,5.70
2018-10-09T05:36:10.297Z,5.60
2018-10-09T05:38:12.386Z,5.70
2018-10-09T05:40:14.477Z,5.70
2018-10-09T05:42:16.591Z,5.70
2018-10-09T05:44:18.751Z,5.70
2018-10-09T05:46:20.800Z,5.80
2018-10-09T05:48:22.996Z,5.70
2018-10-09T05:50:25.082Z,5.70
2018-10-09T05:52:27.183Z,5.70
2018-10-09T05:54:29.252Z,5.80
2018-10-09T05:56:31.363Z,5.80
2018-10-09T05:58:33.455Z,5.90
2018-10-09T06:00:35.553Z,5.90
2018-10-09T06:02:37.731Z,5.90
2018-10-09T06:04:39.960Z,5.90
2018-10-09T06:06:42.041Z,5.90
2018-10-09T06:08:44.138Z,6.00
2018-10-09T06:10:46.214Z,6.00
2018-10-09T06:12:48.249Z,6.00
2018-10-09T06:14:50.328Z,6.00
2018-10-09T06:16:52.392Z,6.00
2018-10-09T06:18:54.478Z,6.00
2018-10-09T06:20:56.597Z,6.10
2018-10-09T06:22:58.753Z,6.10
2018-10-09T06:25:00.848Z,6.10
2018-10-09T06:27:02.940Z,6.20
2018-10-09T06:29:05.005Z,6.30
2018-10-09T06:31:07.172Z,6.30
2018-10-09T06:33:09.312Z,6.40
2018-10-09T06:35:11.395Z,6.50
2018-10-09T06:37:13.514Z,6.50
2018-10-09T06:39:15.569Z,6.60
2018-10-09T06:41:17.640Z,6.70
2018-10-09T06:43:19.748Z,6.80
2018-10-09T06:45:21.826Z,6.90
2018-10-09T06:47:23.911Z,6.90
2018-10-09T06:49:26.036Z,7.00
2018-10-09T06:51:28.094Z,7.10
2018-10-09T06:53:30.239Z,7.20
2018-10-09T06:55:32.258Z,7.20
2018-10-09T06:57:34.368Z,7.30
2018-10-09T06:59:36.520Z,7.40
2018-10-09T07:01:38.646Z,7.60
2018-10-09T07:03:40.737Z,7.80
2018-10-09T07:05:43.549Z,8.10
2018-10-09T07:07:45.648Z,8.70
2018-10-09T07:09:47.834Z,8.80
2018-10-09T07:11:49.942Z,8.80
2018-10-09T07:13:52.180Z,8.80
2018-10-09T07:15:54.405Z,8.80
2018-10-09T07:17:56.566Z,8.80
2018-10-09T07:19:58.792Z,9.00
2018-10-09T07:22:00.921Z,9.10
2018-10-09T07:24:03.005Z,9.20
2018-10-09T07:26:05.206Z,9.20
2018-10-09T07:28:07.346Z,9.70
2018-10-09T07:30:10.017Z,10.00
2018-10-09T07:32:12.080Z,10.00
2018-10-09T07:34:14.171Z,10.00
2018-10-09T07:36:16.303Z,9.80
2018-10-09T07:38:18.405Z,10.10
2018-10-09T07:40:20.585Z,10.70
2018-10-09T07:42:22.766Z,11.30
2018-10-09T07:44:26.050Z,12.00
2018-10-09T07:46:29.494Z,12.40
2018-10-09T07:48:31.579Z,12.80
2018-10-09T07:50:33.812Z,13.10
2018-10-09T07:52:35.931Z,13.60
2018-10-09T07:54:38.118Z,13.80
2018-10-09T07:56:40.222Z,13.90
2018-10-09T07:58:42.734Z,13.90
2018-10-09T08:00:44.839Z,14.10
2018-10-09T08:02:46.977Z,14.40
2018-10-09T08:04:49.203Z,14.90
2018-10-09T08:06:51.277Z,15.00
2018-10-09T08:08:53.371Z,15.20
2018-10-09T08:10:55.511Z,15.60
2018-10-09T08:12:58.574Z,15.30
2018-10-09T08:15:00.677Z,14.80
2018-10-09T08:17:02.772Z,14.30
2018-10-09T08:19:05.042Z,14.00
2018-10-09T08:21:07.128Z,14.50
2018-10-09T08:23:09.231Z,15.00
2018-10-09T08:25:11.302Z,15.40
2018-10-09T08:27:13.370Z,15.50
2018-10-09T08:29:15.451Z,15.70
2018-10-09T08:31:17.545Z,15.50
2018-10-09T08:33:19.620Z,15.10
2018-10-09T08:35:21.698Z,14.80
2018-10-09T08:37:23.909Z,14.70
2018-10-09T08:39:25.985Z,14.60
2018-10-09T08:41:28.055Z,14.50
2018-10-09T08:43:30.113Z,14.40
2018-10-09T08:45:32.170Z,14.30
2018-10-09T08:47:34.301Z,14.30
2018-10-09T08:49:38.406Z,14.30
2018-10-09T08:51:47.773Z,14.40
2018-10-09T08:53:57.998Z,14.40
2018-10-09T08:56:00.181Z,14.60
2018-10-09T08:58:02.347Z,14.60
2018-10-09T09:00:05.034Z,15.00
2018-10-09T09:02:07.152Z,15.70
2018-10-09T09:04:09.554Z,16.70
2018-10-09T09:06:11.637Z,17.40
2018-10-09T09:08:13.733Z,18.30
2018-10-09T09:10:15.849Z,18.80
2018-10-09T09:12:17.965Z,19.30
2018-10-09T09:14:20.181Z,19.50
2018-10-09T09:16:22.307Z,19.50
2018-10-09T09:18:24.376Z,19.80
2018-10-09T09:20:26.705Z,20.20
2018-10-09T09:22:28.757Z,20.70
2018-10-09T09:24:30.861Z,21.10
2018-10-09T09:26:33.014Z,21.30
2018-10-09T09:28:35.258Z,21.40
2018-10-09T09:30:37.389Z,21.10
2018-10-09T09:32:39.704Z,21.70
2018-10-09T09:34:41.860Z,22.10
2018-10-09T09:36:44.048Z,22.30
2018-10-09T09:38:46.244Z,22.60
2018-10-09T09:40:48.474Z,22.40
2018-10-09T09:42:50.605Z,21.50
2018-10-09T09:44:52.738Z,21.80
2018-10-09T09:46:55.068Z,22.60
2018-10-09T09:48:57.227Z,22.60
2018-10-09T09:50:59.393Z,23.10
2018-10-09T09:53:01.581Z,23.10
2018-10-09T09:55:03.801Z,22.90
2018-10-09T09:57:06.082Z,22.60
2018-10-09T09:59:08.329Z,21.90
2018-10-09T10:01:11.231Z,21.70
2018-10-09T10:03:13.363Z,22.50
2018-10-09T10:05:15.453Z,23.00
2018-10-09T10:07:17.595Z,23.20
2018-10-09T10:09:19.781Z,23.50
2018-10-09T10:11:21.823Z,23.60
2018-10-09T10:13:24.003Z,23.60
2018-10-09T10:15:26.158Z,23.20
2018-10-09T10:17:29.373Z,23.80
2018-10-09T10:19:31.507Z,23.90
2018-10-09T10:21:33.696Z,23.40
2018-10-09T10:23:35.780Z,23.80
2018-10-09T10:25:37.854Z,24.40
2018-10-09T10:27:39.966Z,24.30
2018-10-09T10:29:42.075Z,24.30
2018-10-09T10:31:44.143Z,24.50
2018-10-09T10:33:46.250Z,23.90
2018-10-09T10:35:48.425Z,24.70
2018-10-09T10:37:50.484Z,25.10
2018-10-09T10:39:52.683Z,24.90
2018-10-09T10:41:54.803Z,25.50
2018-10-09T10:43:56.926Z,25.00
2018-10-09T10:46:00.270Z,24.10
2018-10-09T10:48:02.380Z,24.70
2018-10-09T10:50:04.457Z,24.50
2018-10-09T10:52:06.618Z,23.80
2018-10-09T10:54:08.725Z,23.50
2018-10-09T10:56:10.828Z,23.30
2018-10-09T10:58:12.932Z,23.50
2018-10-09T11:00:15.025Z,23.10
2018-10-09T11:02:17.206Z,23.20
2018-10-09T11:04:19.377Z,23.50
2018-10-09T11:06:21.816Z,23.00
2018-10-09T11:08:24.003Z,23.50
2018-10-09T11:10:27.097Z,22.30
2018-10-09T11:12:29.286Z,22.90
2018-10-09T11:14:31.463Z,23.00
2018-10-09T11:16:33.612Z,22.80
2018-10-09T11:18:35.741Z,23.30
2018-10-09T11:20:37.856Z,23.60
2018-10-09T11:22:39.935Z,23.90
2018-10-09T11:24:42.090Z,24.50
2018-10-09T11:26:44.221Z,24.80
2018-10-09T11:28:46.304Z,24.90
2018-10-09T11:30:48.447Z,25.70
2018-10-09T11:32:50.553Z,26.00
2018-10-09T11:34:52.693Z,25.90
2018-10-09T11:36:54.933Z,26.20
2018-10-09T11:38:57.034Z,27.00
2018-10-09T11:40:59.138Z,26.60
2018-10-09T11:43:01.259Z,26.00
2018-10-09T11:45:03.353Z,25.50
2018-10-09T11:47:05.564Z,25.90
2018-10-09T11:49:07.671Z,24.90
2018-10-09T11:51:09.772Z,24.50
2018-10-09T11:53:11.916Z,23.60
2018-10-09T11:55:14.006Z,24.40
2018-10-09T11:57:16.101Z,24.70
2018-10-09T11:59:18.161Z,24.90
2018-10-09T12:01:20.310Z,25.50
2018-10-09T12:03:22.394Z,25.90
2018-10-09T12:05:24.526Z,26.30
2018-10-09T12:07:26.596Z,26.50
2018-10-09T12:09:28.698Z,26.90
2018-10-09T12:11:31.655Z,27.10
2018-10-09T12:13:33.736Z,27.50
2018-10-09T12:15:35.872Z,27.60
2018-10-09T12:17:37.953Z,27.30
2018-10-09T12:19:40.052Z,27.40
2018-10-09T12:21:42.134Z,27.00
2018-10-09T12:23:44.218Z,26.40
2018-10-09T12:25:46.329Z,26.50
2018-10-09T12:27:48.414Z,26.50
2018-10-09T12:29:50.589Z,26.10
2018-10-09T12:31:52.661Z,26.70
2018-10-09T12:33:54.811Z,27.10
2018-10-09T12:35:56.915Z,27.60
2018-10-09T12:37:59.026Z,27.90
2018-10-09T12:40:01.223Z,27.90
2018-10-09T12:42:03.337Z,28.50
2018-10-09T12:44:05.557Z,28.60
2018-10-09T12:46:07.638Z,28.80
2018-10-09T12:48:09.720Z,28.30
2018-10-09T12:50:11.865Z,27.80
2018-10-09T12:52:14.030Z,27.90
2018-10-09T12:54:16.181Z,27.90
2018-10-09T12:56:18.351Z,27.90
2018-10-09T12:58:20.578Z,28.00
2018-10-09T13:00:22.680Z,27.80
2018-10-09T13:02:24.790Z,28.10
2018-10-09T13:04:26.889Z,28.10
2018-10-09T13:06:29.034Z,27.10
2018-10-09T13:08:31.138Z,28.00
2018-10-09T13:10:33.244Z,27.70
2018-10-09T13:12:35.464Z,27.90
2018-10-09T13:14:37.640Z,28.00
2018-10-09T13:16:39.749Z,27.90
2018-10-09T13:18:41.922Z,28.00
2018-10-09T13:20:44.122Z,27.70
2018-10-09T13:22:46.257Z,27.40
2018-10-09T13:24:48.429Z,27.40
2018-10-09T13:26:50.559Z,26.50
2018-10-09T13:28:52.706Z,27.00
2018-10-09T13:30:54.933Z,27.50
2018-10-09T13:32:57.059Z,27.30
2018-10-09T13:34:59.210Z,27.30
2018-10-09T13:37:01.326Z,27.10
2018-10-09T13:39:05.263Z,26.70
2018-10-09T13:41:07.403Z,26.40
2018-10-09T13:43:09.562Z,26.30
2018-10-09T13:45:11.687Z,26.40
2018-10-09T13:47:13.909Z,26.20
2018-10-09T13:49:16.032Z,26.50
2018-10-09T13:51:18.153Z,26.30
2018-10-09T13:53:20.381Z,26.10
2018-10-09T13:55:22.917Z,26.40
2018-10-09T13:57:25.107Z,26.30
2018-10-09T13:59:28.201Z,26.20
2018-10-09T14:01:30.352Z,25.20
2018-10-09T14:03:32.466Z,25.30
2018-10-09T14:05:34.688Z,25.50
2018-10-09T14:07:36.782Z,25.50
2018-10-09T14:09:39.891Z,25.20
2018-10-09T14:11:41.970Z,25.30
2018-10-09T14:13:44.061Z,24.10
2018-10-09T14:15:46.169Z,24.40
2018-10-09T14:17:48.248Z,24.30
2018-10-09T14:19:50.457Z,24.40
2018-10-09T14:21:52.578Z,24.30
2018-10-09T14:23:54.908Z,23.80
2018-10-09T14:25:57.037Z,23.90
2018-10-09T14:27:59.167Z,23.60
2018-10-09T14:30:01.412Z,23.80
2018-10-09T14:32:03.506Z,23.50
2018-10-09T14:34:05.877Z,23.60
2018-10-09T14:36:08.001Z,23.50
2018-10-09T14:38:10.103Z,23.70
2018-10-09T14:40:12.206Z,23.90
2018-10-09T14:42:14.281Z,24.10
2018-10-09T14:44:16.393Z,24.10
2018-10-09T14:46:18.474Z,24.30
2018-10-09T14:48:20.585Z,24.10
2018-10-09T14:50:22.676Z,24.30
2018-10-09T14:52:24.772Z,23.80
2018-10-09T14:54:27.061Z,24.20
2018-10-09T14:56:29.228Z,24.10
2018-10-09T14:58:31.390Z,24.10
2018-10-09T15:00:33.550Z,24.20
2018-10-09T15:02:35.734Z,24.10
2018-10-09T15:04:37.886Z,23.70
2018-10-09T15:06:40.062Z,23.60
2018-10-09T15:08:42.217Z,23.60
2018-10-09T15:10:44.315Z,23.80
2018-10-09T15:12:46.403Z,23.90
2018-10-09T15:14:48.513Z,23.90
2018-10-09T15:16:50.726Z,24.00
2018-10-09T15:18:53.508Z,23.80
2018-10-09T15:20:56.697Z,23.80
2018-10-09T15:22:58.773Z,23.80
2018-10-09T15:25:00.877Z,23.70
2018-10-09T15:27:02.975Z,23.70
2018-10-09T15:29:05.165Z,23.50
2018-10-09T15:31:07.448Z,23.10
2018-10-09T15:33:09.790Z,23.10
2018-10-09T15:35:12.093Z,23.10
2018-10-09T15:37:14.358Z,23.00
2018-10-09T15:39:16.561Z,22.90
2018-10-09T15:41:18.767Z,22.80
2018-10-09T15:43:37.309Z,22.60
2018-10-09T15:45:39.498Z,22.40
2018-10-09T15:47:41.852Z,22.30
2018-10-09T15:49:44.038Z,22.20
2018-10-09T15:51:46.346Z,22.00
2018-10-09T15:53:48.745Z,21.80
2018-10-09T15:55:51.199Z,21.70
2018-10-09T15:57:53.507Z,21.60
2018-10-09T15:59:55.722Z,21.40
2018-10-09T16:01:58.070Z,21.30
2018-10-09T16:04:00.343Z,21.10
2018-10-09T16:06:03.222Z,21.00
2018-10-09T16:08:05.481Z,20.80
2018-10-09T16:10:07.859Z,20.70
2018-10-09T16:12:10.106Z,20.50
2018-10-09T16:14:12.286Z,20.40
2018-10-09T16:16:14.562Z,20.20
2018-10-09T16:18:17.108Z,20.10
2018-10-09T16:20:19.306Z,19.90
2018-10-09T16:22:21.585Z,19.80
2018-10-09T16:24:23.835Z,19.50
2018-10-09T16:26:26.063Z,19.50
2018-10-09T16:28:28.566Z,19.30
2018-10-09T16:30:30.789Z,19.00
2018-10-09T16:32:33.069Z,18.80
2018-10-09T16:34:35.246Z,18.80
2018-10-09T16:36:37.535Z,18.80
2018-10-09T16:38:39.712Z,18.70
2018-10-09T16:40:41.865Z,18.60
2018-10-09T16:42:49.942Z,18.40
2018-10-09T16:44:52.356Z,18.40
2018-10-09T16:46:55.366Z,18.20
2018-10-09T16:48:58.198Z,18.10
2018-10-09T16:51:00.806Z,18.00
2018-10-09T16:53:03.054Z,17.80
2018-10-09T17:08:07.098Z,17.70
2018-10-09T17:10:09.320Z,17.10
2018-10-09T17:12:11.503Z,17.00
2018-10-09T17:14:13.690Z,16.90
2018-10-09T17:16:15.803Z,16.80
2018-10-09T17:18:18.014Z,16.70
2018-10-09T17:20:20.154Z,16.60
2018-10-09T17:22:22.478Z,16.60
2018-10-09T17:24:24.595Z,16.50
2018-10-09T17:26:26.742Z,16.40
2018-10-09T17:28:28.972Z,16.40
2018-10-09T17:30:31.139Z,16.30
2018-10-09T17:32:33.411Z,16.30
2018-10-09T17:34:35.543Z,16.20
2018-10-09T17:36:37.686Z,16.20
2018-10-09T17:38:39.894Z,16.10
2018-10-09T17:40:42.046Z,16.10
2018-10-09T17:42:44.183Z,16.10
2018-10-09T17:44:46.503Z,16.00
2018-10-09T17:46:48.715Z,16.00
2018-10-09T17:48:51.394Z,15.80
2018-10-09T17:50:53.576Z,15.70
2018-10-09T17:52:55.726Z,15.60
2018-10-09T17:54:57.915Z,15.50
2018-10-09T17:57:00.090Z,15.50
2018-10-09T17:59:02.199Z,15.50
2018-10-09T18:01:04.418Z,15.40
2018-10-09T18:03:06.520Z,15.40
2018-10-09T18:05:08.664Z,15.40
2018-10-09T18:07:10.826Z,15.40
2018-10-09T18:09:13.014Z,15.30
2018-10-09T18:11:15.144Z,15.30
2018-10-09T18:13:17.259Z,15.30
2018-10-09T18:15:19.406Z,15.30
2018-10-09T18:17:21.528Z,15.20
2018-10-09T18:19:23.816Z,15.10
2018-10-09T18:21:25.938Z,15.10
2018-10-09T18:23:28.076Z,15.00
2018-10-09T18:25:30.190Z,15.00
2018-10-09T18:27:32.318Z,15.10
2018-10-09T18:29:34.490Z,15.10
2018-10-09T18:31:36.587Z,15.10
2018-10-09T18:33:38.758Z,15.00
2018-10-09T18:35:46.577Z,15.00
2018-10-09T18:37:48.692Z,15.00
2018-10-09T18:39:50.795Z,14.90
2018-10-09T18:41:53.050Z,14.80
2018-10-09T18:43:55.023Z,14.70
2018-10-09T18:45:57.116Z,14.70
2018-10-09T18:47:59.229Z,14.60
2018-10-09T18:50:01.506Z,14.60
2018-10-09T18:52:03.631Z,14.60
2018-10-09T18:54:06.067Z,14.50
2018-10-09T18:56:08.190Z,14.30
2018-10-09T18:58:10.303Z,14.30
2018-10-09T19:00:13.088Z,14.40
2018-10-09T19:02:15.366Z,14.40
2018-10-09T19:04:17.526Z,14.50
2018-10-09T19:06:19.703Z,14.50
2018-10-09T19:08:21.835Z,14.50
2018-10-09T19:10:23.945Z,14.50
2018-10-09T19:12:26.060Z,14.40
2018-10-09T19:14:28.199Z,14.30
2018-10-09T19:16:30.301Z,14.30
2018-10-09T19:18:32.411Z,14.20
2018-10-09T19:20:34.579Z,14.20
2018-10-09T19:22:36.714Z,14.10
2018-10-09T19:24:38.827Z,14.10
2018-10-09T19:26:40.978Z,14.10
2018-10-09T19:28:43.082Z,14.20
2018-10-09T19:30:45.190Z,14.20
2018-10-09T19:32:47.327Z,14.10
2018-10-09T19:34:49.442Z,14.00
2018-10-09T19:36:51.554Z,14.00
2018-10-09T19:39:05.700Z,14.00
2018-10-09T19:41:09.382Z,14.00
2018-10-09T19:43:12.543Z,13.90
2018-10-09T19:45:14.678Z,13.90
2018-10-09T19:47:17.302Z,13.80
2018-10-09T19:49:19.723Z,13.80
2018-10-09T19:51:22.064Z,13.70
2018-10-09T19:53:24.267Z,13.70
2018-10-09T19:55:26.579Z,13.70
2018-10-09T19:57:41.233Z,13.70
2018-10-09T19:59:43.562Z,13.70
2018-10-09T20:01:45.716Z,13.60
2018-10-09T20:03:48.022Z,13.60
2018-10-09T20:05:50.206Z,13.60
2018-10-09T20:07:52.589Z,13.60
2018-10-09T20:09:54.774Z,13.50
2018-10-09T20:11:56.989Z,13.50
2018-10-09T20:13:59.172Z,13.50
2018-10-09T20:16:02.150Z,13.50
2018-10-09T20:18:04.314Z,13.40
2018-10-09T20:20:06.565Z,13.40
2018-10-09T20:22:09.445Z,13.40
2018-10-09T20:24:11.653Z,13.30
2018-10-09T20:26:13.851Z,13.40
2018-10-09T20:28:15.954Z,13.30
2018-10-09T20:30:18.082Z,13.30
2018-10-09T20:32:20.618Z,13.30
2018-10-09T20:34:23.298Z,13.30
2018-10-09T20:36:25.502Z,13.20
2018-10-09T20:38:27.635Z,13.20
2018-10-09T20:40:30.408Z,13.10
2018-10-09T20:42:32.504Z,13.10
2018-10-09T20:44:34.630Z,13.10
2018-10-09T20:46:38.300Z,13.10
2018-10-09T20:48:40.446Z,13.10
2018-10-09T20:50:42.627Z,13.00
2018-10-09T20:52:45.116Z,12.90
2018-10-09T20:54:47.339Z,12.70
2018-10-09T20:56:49.482Z,12.60
2018-10-09T20:58:51.586Z,12.70
2018-10-09T21:00:55.172Z,12.50
2018-10-09T21:02:57.432Z,12.50
2018-10-09T21:04:59.855Z,12.60
2018-10-09T21:07:02.002Z,12.60
2018-10-09T21:09:05.672Z,12.60
2018-10-09T21:11:08.138Z,12.60
2018-10-09T21:13:10.267Z,12.60
2018-10-09T21:15:13.359Z,12.60
2018-10-09T21:17:15.538Z,12.60
2018-10-09T21:19:17.685Z,12.60
2018-10-09T21:21:21.590Z,12.50
2018-10-09T21:23:23.865Z,12.30
2018-10-09T21:25:26.020Z,12.30
2018-10-09T21:27:28.655Z,12.30
2018-10-09T21:29:30.907Z,12.30
2018-10-09T21:31:33.090Z,12.30
2018-10-09T21:33:35.201Z,12.20
2018-10-09T21:35:37.762Z,12.20
2018-10-09T21:37:40.220Z,12.20
2018-10-09T21:39:42.733Z,12.10
2018-10-09T21:41:55.452Z,12.00
2018-10-09T21:44:00.982Z,12.10
2018-10-09T21:46:03.471Z,12.10
2018-10-09T21:48:05.763Z,12.00
2018-10-09T21:50:07.927Z,12.00
2018-10-09T21:52:10.062Z,12.00
2018-10-09T21:54:12.208Z,11.90
2018-10-09T21:56:14.418Z,11.90
2018-10-09T21:58:16.525Z,11.90
2018-10-09T22:00:28.255Z,11.90
2018-10-09T22:02:32.756Z,11.90
2018-10-09T22:04:40.901Z,11.80
2018-10-09T22:06:43.222Z,11.90
2018-10-09T22:08:53.883Z,11.90
2018-10-09T22:10:56.202Z,11.90
2018-10-09T22:12:58.373Z,11.80
2018-10-09T22:15:00.516Z,11.70
2018-10-09T22:17:16.068Z,11.70
2018-10-09T22:19:25.507Z,11.60
2018-10-09T22:21:28.560Z,11.60
2018-10-09T22:23:30.691Z,11.70
2018-10-09T22:25:32.811Z,11.70
2018-10-09T22:27:34.899Z,11.60
2018-10-09T22:29:37.043Z,11.70
2018-10-09T22:31:39.207Z,11.70
2018-10-09T22:33:41.342Z,11.60
2018-10-09T22:35:43.489Z,11.70
2018-10-09T22:37:45.617Z,11.70
2018-10-09T22:39:47.822Z,11.70
2018-10-09T22:41:49.951Z,11.70
2018-10-09T22:46:35.156Z,11.70
2018-10-09T22:49:30.904Z,11.60
2018-10-09T22:51:34.835Z,11.60
2018-10-09T22:53:37.274Z,11.40
2018-10-09T22:55:41.790Z,11.30
2018-10-09T22:57:44.504Z,11.20
2018-10-09T22:59:53.605Z,11.10
2018-10-09T23:02:04.043Z,11.10
2018-10-09T23:04:07.075Z,11.00
2018-10-09T23:06:09.823Z,11.00
2018-10-09T23:08:13.015Z,10.90
2018-10-09T23:10:15.916Z,10.90
2018-10-09T23:12:31.515Z,10.90
2018-10-09T23:14:34.384Z,10.90
2018-10-09T23:16:36.802Z,11.00
2018-10-09T23:18:39.286Z,11.00
2018-10-09T23:20:41.578Z,11.00
2018-10-09T23:22:44.115Z,11.00
2018-10-09T23:24:46.275Z,11.00
2018-10-09T23:26:48.540Z,11.00
2018-10-09T23:28:50.711Z,11.00
2018-10-09T23:30:52.858Z,10.90
2018-10-09T23:32:55.439Z,11.00
2018-10-09T23:34:57.836Z,10.90
2018-10-09T23:37:00.077Z,10.90
2018-10-09T23:39:02.616Z,10.80
2018-10-09T23:41:05.071Z,10.80
2018-10-09T23:43:07.362Z,10.80
2018-10-09T23:45:09.600Z,10.80
2018-10-09T23:47:11.755Z,10.80
2018-10-09T23:49:13.890Z,10.80
2018-10-09T23:51:16.002Z,10.80
2018-10-09T23:53:18.134Z,10.70
2018-10-09T23:55:20.781Z,10.70
2018-10-09T23:57:22.910Z,10.70
2018-10-09T23:59:25.051Z,10.60
